Meteo Giornale » Osservazioni meteo Stati Uniti (USA) » Millinocket
ore: 13:53 - Osservazioni Meteo Millinocket
Lat. 45° 38' N Lon. 68° 41' W Alt. 124 metri s.l.m.
22 °C
Sereno
Temp. 24 Ore
9 °C
24 °C
Ovest/Nord-Ovest
14.8 Km/h
Dew point 8 °C
Umidità 40 %
Visibilità 10 Km
Il sole sorge alle ore 05:55
Il sole tramonta alle ore 19:14
| Data e Ora | Cielo e Fenomeni | T °C | DP °C | Um. % | Pres. hPa | Vis. km | Vento km/h | |
|---|---|---|---|---|---|---|---|---|
| Oggi h: 13:53 | Sereno | 22 | 8 | 40 | 1018 | 10 | O/NO 14.8 | |
| Oggi h: 12:53 | Sereno | 21 | 8 | 43 | 1018 | 10 | O 13 | |
| Oggi h: 11:53 | Sereno | 21 | 9 | 46 | 1018 | 10 | N 0 | |
| Oggi h: 10:53 | Sereno | 19 | 8 | 48 | 1019 | 10 | N 9.3 | |
| Oggi h: 09:53 | Sereno | 18 | 9 | 55 | 1019 | 10 | O/NO 14.8 | |
| Oggi h: 08:53 | Sereno | 16 | 9 | 63 | 1019 | 10 | NO 11.1 | |
| Oggi h: 07:53 | Sereno | 14 | 10 | 76 | 1019 | 10 | O/NO 13 | |
| Oggi h: 06:53 | Sereno | 12 | 9 | 81 | 1018 | 10 | N 0 | |
| Oggi h: 05:53 | Sereno | 11 | 9 | 87 | 1018 | 10 | O 9.3 | |
| Oggi h: 04:53 | Sereno | 9 | 8 | 93 | 1017 | 10 | N 0 | |
| Oggi h: 03:53 | Sereno | 12 | 9 | 81 | 1017 | 10 | N 5.5 | |
| Oggi h: 02:53 | Sereno | 12 | 9 | 81 | 1017 | 10 | NO 7.4 | |
| Oggi h: 01:53 | Sereno | 12 | 10 | 87 | 1017 | 10 | O/NO 7.4 | |
| Oggi h: 00:53 | Sereno | 13 | 11 | 87 | 1016 | 10 | NO 9.3 | |
| Ieri h: 23:53 | Sereno | 13 | 11 | 87 | 1016 | 10 | N 0 | |
| Ieri h: 22:53 | Sereno | 14 | 12 | 87 | 1016 | 10 | NO 7.4 | |
| Ieri h: 21:53 | Sereno | 15 | 13 | 87 | 1015 | 10 | NO 9.3 | |
| Ieri h: 20:53 | Molto Nuvoloso | 16 | 13 | 82 | 1015 | 10 | N 5.5 | |
| Ieri h: 19:53 | Pioggia | 17 | 13 | 77 | 1014 | 8 | N 9.3 | |
| Ieri h: 18:53 | Coperto | 19 | 12 | 63 | 1012 | 10 | O 9.3 | |
| Ieri h: 17:53 | Coperto | 22 | 12 | 53 | 1012 | 10 | N 9.3 | |
| Ieri h: 16:53 | Sereno | 23 | 13 | 53 | 1012 | 10 | O 7.4 | |
| Ieri h: 15:53 | Sereno | 23 | 13 | 53 | 1012 | 10 | O 7.4 | |
| Ieri h: 14:53 | Poco Nuvoloso | 24 | 13 | 50 | 1012 | 10 | O 9.3 | |



